sensor_id;sensor_type;location;lat;lon;timestamp;P1;durP1;ratioP1;P2;durP2;ratioP2
40997;SDS011;26740;45.944;12.480;2023-06-22T00:02:05;19.65;;;17.85;;
40997;SDS011;26740;45.944;12.480;2023-06-22T00:04:30;19.95;;;18.05;;
40997;SDS011;26740;45.944;12.480;2023-06-22T00:06:56;17.92;;;16.42;;
40997;SDS011;26740;45.944;12.480;2023-06-22T00:09:21;20.67;;;18.65;;
40997;SDS011;26740;45.944;12.480;2023-06-22T00:11:47;20.17;;;18.20;;
40997;SDS011;26740;45.944;12.480;2023-06-22T00:14:12;19.05;;;17.15;;
40997;SDS011;26740;45.944;12.480;2023-06-22T00:16:37;20.00;;;18.15;;
40997;SDS011;26740;45.944;12.480;2023-06-22T00:19:03;19.38;;;17.48;;
40997;SDS011;26740;45.944;12.480;2023-06-22T00:21:28;20.17;;;18.25;;
40997;SDS011;26740;45.944;12.480;2023-06-22T00:23:54;19.23;;;17.50;;
40997;SDS011;26740;45.944;12.480;2023-06-22T00:26:20;21.15;;;19.17;;
40997;SDS011;26740;45.944;12.480;2023-06-22T00:28:46;19.63;;;17.92;;
40997;SDS011;26740;45.944;12.480;2023-06-22T00:31:11;19.25;;;17.58;;
40997;SDS011;26740;45.944;12.480;2023-06-22T00:33:37;22.40;;;18.15;;
40997;SDS011;26740;45.944;12.480;2023-06-22T00:36:02;21.13;;;19.27;;
40997;SDS011;26740;45.944;12.480;2023-06-22T00:38:28;22.67;;;20.70;;
40997;SDS011;26740;45.944;12.480;2023-06-22T00:40:53;21.27;;;19.38;;
40997;SDS011;26740;45.944;12.480;2023-06-22T00:43:19;21.50;;;19.60;;
40997;SDS011;26740;45.944;12.480;2023-06-22T00:45:44;25.15;;;22.00;;
40997;SDS011;26740;45.944;12.480;2023-06-22T00:48:09;22.70;;;20.50;;
40997;SDS011;26740;45.944;12.480;2023-06-22T00:50:35;22.40;;;20.35;;
40997;SDS011;26740;45.944;12.480;2023-06-22T00:53:02;23.50;;;21.17;;
40997;SDS011;26740;45.944;12.480;2023-06-22T00:55:32;23.23;;;21.05;;
40997;SDS011;26740;45.944;12.480;2023-06-22T00:57:57;21.83;;;19.83;;
40997;SDS011;26740;45.944;12.480;2023-06-22T01:00:23;21.75;;;19.75;;
40997;SDS011;26740;45.944;12.480;2023-06-22T01:02:50;21.15;;;19.35;;
40997;SDS011;26740;45.944;12.480;2023-06-22T01:05:17;20.92;;;19.00;;
40997;SDS011;26740;45.944;12.480;2023-06-22T01:10:16;21.45;;;19.55;;
40997;SDS011;26740;45.944;12.480;2023-06-22T01:12:53;20.42;;;18.55;;
40997;SDS011;26740;45.944;12.480;2023-06-22T01:15:25;21.80;;;19.90;;
40997;SDS011;26740;45.944;12.480;2023-06-22T01:17:53;20.92;;;19.15;;
40997;SDS011;26740;45.944;12.480;2023-06-22T01:20:19;20.15;;;18.27;;
40997;SDS011;26740;45.944;12.480;2023-06-22T01:25:53;21.33;;;19.45;;
40997;SDS011;26740;45.944;12.480;2023-06-22T01:28:37;19.98;;;18.08;;
40997;SDS011;26740;45.944;12.480;2023-06-22T01:31:03;19.88;;;18.15;;
40997;SDS011;26740;45.944;12.480;2023-06-22T01:33:34;21.67;;;18.45;;
40997;SDS011;26740;45.944;12.480;2023-06-22T01:36:01;20.17;;;18.30;;
40997;SDS011;26740;45.944;12.480;2023-06-22T01:38:26;20.77;;;19.02;;
40997;SDS011;26740;45.944;12.480;2023-06-22T01:40:53;21.88;;;19.52;;
40997;SDS011;26740;45.944;12.480;2023-06-22T01:43:20;20.10;;;18.20;;
40997;SDS011;26740;45.944;12.480;2023-06-22T01:45:48;19.88;;;17.90;;
40997;SDS011;26740;45.944;12.480;2023-06-22T01:48:13;18.80;;;16.95;;
40997;SDS011;26740;45.944;12.480;2023-06-22T01:50:39;20.33;;;18.40;;
40997;SDS011;26740;45.944;12.480;2023-06-22T01:53:05;19.42;;;17.13;;
40997;SDS011;26740;45.944;12.480;2023-06-22T01:55:31;20.08;;;18.23;;
40997;SDS011;26740;45.944;12.480;2023-06-22T01:57:57;19.83;;;18.02;;
40997;SDS011;26740;45.944;12.480;2023-06-22T02:00:22;20.48;;;18.60;;
40997;SDS011;26740;45.944;12.480;2023-06-22T02:02:55;19.52;;;17.73;;
40997;SDS011;26740;45.944;12.480;2023-06-22T02:05:22;20.13;;;18.20;;
40997;SDS011;26740;45.944;12.480;2023-06-22T02:12:54;18.40;;;16.70;;
40997;SDS011;26740;45.944;12.480;2023-06-22T02:15:20;17.95;;;16.48;;
40997;SDS011;26740;45.944;12.480;2023-06-22T02:17:45;19.00;;;17.08;;
40997;SDS011;26740;45.944;12.480;2023-06-22T02:20:12;19.20;;;17.60;;
40997;SDS011;26740;45.944;12.480;2023-06-22T02:22:38;18.80;;;17.08;;
40997;SDS011;26740;45.944;12.480;2023-06-22T02:25:04;19.65;;;17.75;;
40997;SDS011;26740;45.944;12.480;2023-06-22T02:27:29;20.05;;;18.23;;
40997;SDS011;26740;45.944;12.480;2023-06-22T02:29:54;20.50;;;18.45;;
40997;SDS011;26740;45.944;12.480;2023-06-22T02:32:20;19.85;;;17.98;;
40997;SDS011;26740;45.944;12.480;2023-06-22T02:34:45;19.15;;;17.38;;
40997;SDS011;26740;45.944;12.480;2023-06-22T02:37:13;20.85;;;18.60;;
40997;SDS011;26740;45.944;12.480;2023-06-22T02:39:39;19.50;;;17.73;;
40997;SDS011;26740;45.944;12.480;2023-06-22T02:42:05;19.00;;;17.42;;
40997;SDS011;26740;45.944;12.480;2023-06-22T02:44:30;19.65;;;17.92;;
40997;SDS011;26740;45.944;12.480;2023-06-22T02:46:56;19.20;;;17.40;;
40997;SDS011;26740;45.944;12.480;2023-06-22T02:49:21;19.23;;;17.55;;
40997;SDS011;26740;45.944;12.480;2023-06-22T02:51:47;18.60;;;16.90;;
40997;SDS011;26740;45.944;12.480;2023-06-22T02:54:13;18.88;;;17.30;;
40997;SDS011;26740;45.944;12.480;2023-06-22T02:56:38;21.05;;;19.02;;
40997;SDS011;26740;45.944;12.480;2023-06-22T02:59:05;21.05;;;17.92;;
40997;SDS011;26740;45.944;12.480;2023-06-22T03:01:31;21.85;;;19.63;;
40997;SDS011;26740;45.944;12.480;2023-06-22T03:04:03;19.13;;;17.13;;
40997;SDS011;26740;45.944;12.480;2023-06-22T03:06:28;21.27;;;19.48;;
40997;SDS011;26740;45.944;12.480;2023-06-22T03:09:00;20.50;;;18.77;;
40997;SDS011;26740;45.944;12.480;2023-06-22T03:11:26;21.30;;;19.25;;
40997;SDS011;26740;45.944;12.480;2023-06-22T03:13:52;20.85;;;18.90;;
40997;SDS011;26740;45.944;12.480;2023-06-22T03:16:18;19.20;;;17.48;;
40997;SDS011;26740;45.944;12.480;2023-06-22T03:18:44;19.98;;;18.13;;
40997;SDS011;26740;45.944;12.480;2023-06-22T03:21:09;20.83;;;18.75;;
40997;SDS011;26740;45.944;12.480;2023-06-22T03:23:34;18.85;;;16.98;;
40997;SDS011;26740;45.944;12.480;2023-06-22T03:26:00;19.88;;;18.08;;
40997;SDS011;26740;45.944;12.480;2023-06-22T03:28:26;20.33;;;17.55;;
40997;SDS011;26740;45.944;12.480;2023-06-22T03:30:51;19.27;;;17.50;;
40997;SDS011;26740;45.944;12.480;2023-06-22T03:33:17;20.60;;;18.70;;
40997;SDS011;26740;45.944;12.480;2023-06-22T03:35:42;19.77;;;17.98;;
40997;SDS011;26740;45.944;12.480;2023-06-22T03:38:07;18.48;;;16.85;;
40997;SDS011;26740;45.944;12.480;2023-06-22T03:40:33;24.27;;;18.65;;
40997;SDS011;26740;45.944;12.480;2023-06-22T03:42:58;19.67;;;17.85;;
40997;SDS011;26740;45.944;12.480;2023-06-22T03:45:24;18.90;;;17.30;;
40997;SDS011;26740;45.944;12.480;2023-06-22T03:47:49;19.55;;;17.63;;
40997;SDS011;26740;45.944;12.480;2023-06-22T03:50:14;20.17;;;18.27;;
40997;SDS011;26740;45.944;12.480;2023-06-22T03:52:40;19.55;;;17.77;;
40997;SDS011;26740;45.944;12.480;2023-06-22T03:55:06;19.33;;;17.30;;
40997;SDS011;26740;45.944;12.480;2023-06-22T03:57:31;18.45;;;16.70;;
40997;SDS011;26740;45.944;12.480;2023-06-22T03:59:57;19.80;;;17.73;;
40997;SDS011;26740;45.944;12.480;2023-06-22T04:02:23;20.08;;;18.08;;
40997;SDS011;26740;45.944;12.480;2023-06-22T04:04:48;21.27;;;17.92;;
40997;SDS011;26740;45.944;12.480;2023-06-22T04:07:14;17.77;;;16.17;;
40997;SDS011;26740;45.944;12.480;2023-06-22T04:09:39;17.77;;;16.27;;
40997;SDS011;26740;45.944;12.480;2023-06-22T04:12:06;18.92;;;17.00;;
40997;SDS011;26740;45.944;12.480;2023-06-22T04:14:32;19.35;;;17.35;;
40997;SDS011;26740;45.944;12.480;2023-06-22T04:16:57;18.17;;;16.60;;
40997;SDS011;26740;45.944;12.480;2023-06-22T04:19:23;18.15;;;16.52;;
40997;SDS011;26740;45.944;12.480;2023-06-22T04:21:48;17.92;;;16.30;;
40997;SDS011;26740;45.944;12.480;2023-06-22T04:24:14;17.48;;;15.70;;
40997;SDS011;26740;45.944;12.480;2023-06-22T04:26:39;18.45;;;16.45;;
40997;SDS011;26740;45.944;12.480;2023-06-22T04:29:06;16.65;;;15.25;;
40997;SDS011;26740;45.944;12.480;2023-06-22T04:31:34;16.70;;;15.05;;
40997;SDS011;26740;45.944;12.480;2023-06-22T04:34:02;15.93;;;14.15;;
40997;SDS011;26740;45.944;12.480;2023-06-22T04:36:40;15.73;;;14.30;;
40997;SDS011;26740;45.944;12.480;2023-06-22T04:39:09;17.60;;;15.00;;
40997;SDS011;26740;45.944;12.480;2023-06-22T04:41:35;16.08;;;14.50;;
40997;SDS011;26740;45.944;12.480;2023-06-22T04:44:11;18.10;;;16.25;;
40997;SDS011;26740;45.944;12.480;2023-06-22T04:46:36;20.67;;;16.27;;
40997;SDS011;26740;45.944;12.480;2023-06-22T04:49:06;15.55;;;14.13;;
40997;SDS011;26740;45.944;12.480;2023-06-22T04:51:43;16.65;;;14.80;;
40997;SDS011;26740;45.944;12.480;2023-06-22T04:54:09;16.05;;;14.48;;
40997;SDS011;26740;45.944;12.480;2023-06-22T04:56:34;14.13;;;12.88;;
40997;SDS011;26740;45.944;12.480;2023-06-22T04:59:00;15.07;;;12.30;;
40997;SDS011;26740;45.944;12.480;2023-06-22T05:01:26;12.88;;;11.70;;
40997;SDS011;26740;45.944;12.480;2023-06-22T05:03:51;14.50;;;12.90;;
40997;SDS011;26740;45.944;12.480;2023-06-22T05:06:26;14.45;;;13.27;;
40997;SDS011;26740;45.944;12.480;2023-06-22T05:08:54;14.38;;;12.73;;
40997;SDS011;26740;45.944;12.480;2023-06-22T05:11:24;13.77;;;12.45;;
40997;SDS011;26740;45.944;12.480;2023-06-22T05:13:49;14.48;;;13.23;;
40997;SDS011;26740;45.944;12.480;2023-06-22T05:16:15;14.00;;;12.68;;
40997;SDS011;26740;45.944;12.480;2023-06-22T05:18:40;13.63;;;12.40;;
40997;SDS011;26740;45.944;12.480;2023-06-22T05:21:07;14.50;;;13.07;;
40997;SDS011;26740;45.944;12.480;2023-06-22T05:23:32;14.93;;;13.40;;
40997;SDS011;26740;45.944;12.480;2023-06-22T05:25:57;14.60;;;13.07;;
40997;SDS011;26740;45.944;12.480;2023-06-22T05:28:23;18.10;;;13.40;;
40997;SDS011;26740;45.944;12.480;2023-06-22T05:30:49;14.57;;;13.27;;
40997;SDS011;26740;45.944;12.480;2023-06-22T05:33:14;15.45;;;13.07;;
40997;SDS011;26740;45.944;12.480;2023-06-22T05:35:40;15.93;;;14.23;;
40997;SDS011;26740;45.944;12.480;2023-06-22T05:38:07;15.18;;;13.68;;
40997;SDS011;26740;45.944;12.480;2023-06-22T05:40:32;14.18;;;12.85;;
40997;SDS011;26740;45.944;12.480;2023-06-22T05:42:57;16.05;;;14.25;;
40997;SDS011;26740;45.944;12.480;2023-06-22T05:45:24;15.98;;;14.50;;
40997;SDS011;26740;45.944;12.480;2023-06-22T05:47:50;17.00;;;15.13;;
40997;SDS011;26740;45.944;12.480;2023-06-22T05:50:15;17.00;;;15.27;;
40997;SDS011;26740;45.944;12.480;2023-06-22T05:52:40;17.42;;;15.93;;
40997;SDS011;26740;45.944;12.480;2023-06-22T05:55:06;20.80;;;18.13;;
40997;SDS011;26740;45.944;12.480;2023-06-22T05:57:31;20.92;;;18.77;;
40997;SDS011;26740;45.944;12.480;2023-06-22T05:59:57;20.98;;;18.88;;
40997;SDS011;26740;45.944;12.480;2023-06-22T06:02:22;20.00;;;18.13;;
40997;SDS011;26740;45.944;12.480;2023-06-22T06:04:48;22.52;;;20.23;;
40997;SDS011;26740;45.944;12.480;2023-06-22T06:07:16;21.77;;;19.52;;
40997;SDS011;26740;45.944;12.480;2023-06-22T06:09:41;22.75;;;20.65;;
40997;SDS011;26740;45.944;12.480;2023-06-22T06:12:07;22.98;;;20.83;;
40997;SDS011;26740;45.944;12.480;2023-06-22T06:14:32;21.08;;;19.05;;
40997;SDS011;26740;45.944;12.480;2023-06-22T06:16:58;20.80;;;18.83;;
40997;SDS011;26740;45.944;12.480;2023-06-22T06:19:23;21.85;;;19.63;;
40997;SDS011;26740;45.944;12.480;2023-06-22T06:21:49;21.02;;;18.88;;
40997;SDS011;26740;45.944;12.480;2023-06-22T06:24:14;20.88;;;18.88;;
40997;SDS011;26740;45.944;12.480;2023-06-22T06:26:40;20.80;;;18.80;;
40997;SDS011;26740;45.944;12.480;2023-06-22T06:29:05;20.50;;;18.65;;
40997;SDS011;26740;45.944;12.480;2023-06-22T06:31:31;20.13;;;18.23;;
40997;SDS011;26740;45.944;12.480;2023-06-22T06:33:56;21.48;;;19.58;;
40997;SDS011;26740;45.944;12.480;2023-06-22T06:36:21;21.30;;;19.45;;
40997;SDS011;26740;45.944;12.480;2023-06-22T06:38:47;19.60;;;17.67;;
40997;SDS011;26740;45.944;12.480;2023-06-22T06:41:13;19.77;;;17.75;;
40997;SDS011;26740;45.944;12.480;2023-06-22T06:43:39;20.52;;;18.13;;
40997;SDS011;26740;45.944;12.480;2023-06-22T06:46:04;18.67;;;16.60;;
40997;SDS011;26740;45.944;12.480;2023-06-22T06:48:30;18.48;;;16.63;;
40997;SDS011;26740;45.944;12.480;2023-06-22T06:50:55;20.10;;;17.13;;
40997;SDS011;26740;45.944;12.480;2023-06-22T06:53:21;18.20;;;16.38;;
40997;SDS011;26740;45.944;12.480;2023-06-22T06:55:46;18.20;;;16.38;;
40997;SDS011;26740;45.944;12.480;2023-06-22T06:58:11;17.75;;;15.73;;
40997;SDS011;26740;45.944;12.480;2023-06-22T07:00:38;18.60;;;16.90;;
40997;SDS011;26740;45.944;12.480;2023-06-22T07:03:04;16.80;;;15.20;;
40997;SDS011;26740;45.944;12.480;2023-06-22T07:05:29;15.98;;;14.38;;
40997;SDS011;26740;45.944;12.480;2023-06-22T07:07:54;18.58;;;16.85;;
40997;SDS011;26740;45.944;12.480;2023-06-22T07:10:20;18.48;;;16.77;;
40997;SDS011;26740;45.944;12.480;2023-06-22T07:12:46;18.90;;;15.60;;
40997;SDS011;26740;45.944;12.480;2023-06-22T07:15:11;17.92;;;16.20;;
40997;SDS011;26740;45.944;12.480;2023-06-22T07:17:37;17.85;;;16.10;;
40997;SDS011;26740;45.944;12.480;2023-06-22T07:20:06;17.65;;;15.80;;
40997;SDS011;26740;45.944;12.480;2023-06-22T07:22:35;16.38;;;14.57;;
40997;SDS011;26740;45.944;12.480;2023-06-22T07:25:00;15.73;;;14.23;;
40997;SDS011;26740;45.944;12.480;2023-06-22T07:27:26;18.08;;;15.50;;
40997;SDS011;26740;45.944;12.480;2023-06-22T07:29:52;19.38;;;15.73;;
40997;SDS011;26740;45.944;12.480;2023-06-22T07:32:17;17.70;;;15.88;;
40997;SDS011;26740;45.944;12.480;2023-06-22T07:34:42;17.08;;;15.35;;
40997;SDS011;26740;45.944;12.480;2023-06-22T07:37:08;17.65;;;15.93;;
40997;SDS011;26740;45.944;12.480;2023-06-22T07:39:34;19.65;;;16.58;;
40997;SDS011;26740;45.944;12.480;2023-06-22T07:41:59;18.08;;;16.27;;
40997;SDS011;26740;45.944;12.480;2023-06-22T07:44:25;18.05;;;16.15;;
40997;SDS011;26740;45.944;12.480;2023-06-22T07:46:50;19.67;;;17.98;;
40997;SDS011;26740;45.944;12.480;2023-06-22T07:49:17;19.83;;;17.85;;
40997;SDS011;26740;45.944;12.480;2023-06-22T07:51:42;20.80;;;18.88;;
40997;SDS011;26740;45.944;12.480;2023-06-22T07:54:08;21.77;;;17.42;;
40997;SDS011;26740;45.944;12.480;2023-06-22T07:56:34;20.38;;;16.55;;
40997;SDS011;26740;45.944;12.480;2023-06-22T07:58:59;18.85;;;17.17;;
40997;SDS011;26740;45.944;12.480;2023-06-22T08:01:26;20.52;;;17.63;;
40997;SDS011;26740;45.944;12.480;2023-06-22T08:03:52;20.33;;;18.20;;
40997;SDS011;26740;45.944;12.480;2023-06-22T08:06:17;20.58;;;18.42;;
40997;SDS011;26740;45.944;12.480;2023-06-22T08:08:43;20.15;;;17.85;;
40997;SDS011;26740;45.944;12.480;2023-06-22T08:11:08;18.58;;;16.42;;
40997;SDS011;26740;45.944;12.480;2023-06-22T08:13:34;18.85;;;16.88;;
40997;SDS011;26740;45.944;12.480;2023-06-22T08:15:59;18.35;;;16.58;;
40997;SDS011;26740;45.944;12.480;2023-06-22T08:18:25;24.55;;;18.17;;
40997;SDS011;26740;45.944;12.480;2023-06-22T08:20:50;20.73;;;18.52;;
40997;SDS011;26740;45.944;12.480;2023-06-22T08:23:16;21.92;;;18.00;;
40997;SDS011;26740;45.944;12.480;2023-06-22T08:25:41;19.00;;;17.10;;
40997;SDS011;26740;45.944;12.480;2023-06-22T08:28:06;19.13;;;17.33;;
40997;SDS011;26740;45.944;12.480;2023-06-22T08:30:32;18.83;;;16.92;;
40997;SDS011;26740;45.944;12.480;2023-06-22T08:32:57;23.00;;;19.70;;
40997;SDS011;26740;45.944;12.480;2023-06-22T08:35:23;20.42;;;18.27;;
40997;SDS011;26740;45.944;12.480;2023-06-22T08:37:48;20.35;;;18.55;;
40997;SDS011;26740;45.944;12.480;2023-06-22T08:40:23;21.67;;;19.77;;
40997;SDS011;26740;45.944;12.480;2023-06-22T08:42:49;20.17;;;18.23;;
40997;SDS011;26740;45.944;12.480;2023-06-22T08:45:14;20.50;;;18.67;;
40997;SDS011;26740;45.944;12.480;2023-06-22T08:47:40;19.90;;;17.88;;
40997;SDS011;26740;45.944;12.480;2023-06-22T08:50:09;20.75;;;18.58;;
40997;SDS011;26740;45.944;12.480;2023-06-22T08:52:35;20.33;;;18.15;;
40997;SDS011;26740;45.944;12.480;2023-06-22T08:55:01;26.30;;;19.00;;
40997;SDS011;26740;45.944;12.480;2023-06-22T08:57:26;22.45;;;20.17;;
40997;SDS011;26740;45.944;12.480;2023-06-22T08:59:52;21.85;;;19.63;;
40997;SDS011;26740;45.944;12.480;2023-06-22T09:02:18;21.75;;;19.02;;
40997;SDS011;26740;45.944;12.480;2023-06-22T09:04:45;21.85;;;19.55;;
40997;SDS011;26740;45.944;12.480;2023-06-22T09:07:10;21.23;;;19.40;;
40997;SDS011;26740;45.944;12.480;2023-06-22T09:09:36;24.30;;;20.08;;
40997;SDS011;26740;45.944;12.480;2023-06-22T09:12:02;21.25;;;19.25;;
40997;SDS011;26740;45.944;12.480;2023-06-22T09:14:27;19.85;;;18.00;;
40997;SDS011;26740;45.944;12.480;2023-06-22T09:16:53;19.75;;;17.75;;
40997;SDS011;26740;45.944;12.480;2023-06-22T09:19:18;19.85;;;18.00;;
40997;SDS011;26740;45.944;12.480;2023-06-22T09:21:44;20.23;;;18.20;;
40997;SDS011;26740;45.944;12.480;2023-06-22T09:24:09;21.00;;;18.48;;
40997;SDS011;26740;45.944;12.480;2023-06-22T09:26:34;21.95;;;16.73;;
40997;SDS011;26740;45.944;12.480;2023-06-22T09:29:00;18.08;;;16.27;;
40997;SDS011;26740;45.944;12.480;2023-06-22T09:31:25;20.77;;;17.33;;
40997;SDS011;26740;45.944;12.480;2023-06-22T09:33:53;17.85;;;16.08;;
40997;SDS011;26740;45.944;12.480;2023-06-22T09:36:20;20.45;;;17.48;;
40997;SDS011;26740;45.944;12.480;2023-06-22T09:38:45;21.77;;;18.25;;
40997;SDS011;26740;45.944;12.480;2023-06-22T09:41:11;19.00;;;17.30;;
40997;SDS011;26740;45.944;12.480;2023-06-22T09:43:36;19.80;;;17.77;;
40997;SDS011;26740;45.944;12.480;2023-06-22T09:46:02;18.50;;;16.80;;
40997;SDS011;26740;45.944;12.480;2023-06-22T09:48:28;17.48;;;15.63;;
40997;SDS011;26740;45.944;12.480;2023-06-22T09:50:54;15.32;;;13.95;;
40997;SDS011;26740;45.944;12.480;2023-06-22T09:53:19;16.40;;;13.95;;
40997;SDS011;26740;45.944;12.480;2023-06-22T09:55:45;15.85;;;14.40;;
40997;SDS011;26740;45.944;12.480;2023-06-22T09:58:10;15.70;;;14.10;;
40997;SDS011;26740;45.944;12.480;2023-06-22T10:00:35;13.40;;;12.30;;
40997;SDS011;26740;45.944;12.480;2023-06-22T10:03:01;13.60;;;12.30;;
40997;SDS011;26740;45.944;12.480;2023-06-22T10:05:26;13.60;;;12.18;;
40997;SDS011;26740;45.944;12.480;2023-06-22T10:07:52;14.52;;;12.75;;
40997;SDS011;26740;45.944;12.480;2023-06-22T10:10:17;18.27;;;12.75;;
40997;SDS011;26740;45.944;12.480;2023-06-22T10:12:44;16.40;;;12.88;;
40997;SDS011;26740;45.944;12.480;2023-06-22T10:15:10;13.57;;;12.30;;
40997;SDS011;26740;45.944;12.480;2023-06-22T10:17:36;13.90;;;12.18;;
40997;SDS011;26740;45.944;12.480;2023-06-22T10:20:01;15.30;;;11.77;;
40997;SDS011;26740;45.944;12.480;2023-06-22T10:22:32;15.23;;;12.40;;
40997;SDS011;26740;45.944;12.480;2023-06-22T10:24:57;13.00;;;11.68;;
40997;SDS011;26740;45.944;12.480;2023-06-22T10:27:22;13.70;;;12.27;;
40997;SDS011;26740;45.944;12.480;2023-06-22T10:29:48;15.80;;;13.48;;
40997;SDS011;26740;45.944;12.480;2023-06-22T10:32:13;17.10;;;12.95;;
40997;SDS011;26740;45.944;12.480;2023-06-22T10:34:38;15.52;;;13.88;;
40997;SDS011;26740;45.944;12.480;2023-06-22T10:37:04;16.25;;;13.50;;
40997;SDS011;26740;45.944;12.480;2023-06-22T10:39:29;13.98;;;12.57;;
40997;SDS011;26740;45.944;12.480;2023-06-22T10:41:55;13.02;;;11.85;;
40997;SDS011;26740;45.944;12.480;2023-06-22T10:44:21;13.63;;;12.05;;
40997;SDS011;26740;45.944;12.480;2023-06-22T10:46:47;16.27;;;12.40;;
40997;SDS011;26740;45.944;12.480;2023-06-22T10:49:12;13.75;;;12.25;;
40997;SDS011;26740;45.944;12.480;2023-06-22T10:51:38;14.02;;;12.70;;
40997;SDS011;26740;45.944;12.480;2023-06-22T10:54:03;12.30;;;11.02;;
40997;SDS011;26740;45.944;12.480;2023-06-22T10:56:29;11.73;;;10.52;;
40997;SDS011;26740;45.944;12.480;2023-06-22T10:58:55;14.55;;;12.05;;
40997;SDS011;26740;45.944;12.480;2023-06-22T11:01:20;12.70;;;11.57;;
40997;SDS011;26740;45.944;12.480;2023-06-22T11:03:45;15.38;;;11.63;;
40997;SDS011;26740;45.944;12.480;2023-06-22T11:06:11;11.65;;;10.52;;
40997;SDS011;26740;45.944;12.480;2023-06-22T11:08:36;10.60;;;9.52;;
40997;SDS011;26740;45.944;12.480;2023-06-22T11:11:02;10.45;;;9.05;;
40997;SDS011;26740;45.944;12.480;2023-06-22T11:13:27;10.32;;;8.45;;
40997;SDS011;26740;45.944;12.480;2023-06-22T11:15:52;10.27;;;9.25;;
40997;SDS011;26740;45.944;12.480;2023-06-22T11:18:18;12.02;;;9.40;;
40997;SDS011;26740;45.944;12.480;2023-06-22T11:20:43;10.43;;;9.43;;
40997;SDS011;26740;45.944;12.480;2023-06-22T11:23:08;13.02;;;10.07;;
40997;SDS011;26740;45.944;12.480;2023-06-22T11:25:34;10.70;;;9.70;;
40997;SDS011;26740;45.944;12.480;2023-06-22T11:28:02;10.95;;;9.73;;
40997;SDS011;26740;45.944;12.480;2023-06-22T11:30:28;11.27;;;7.88;;
40997;SDS011;26740;45.944;12.480;2023-06-22T11:32:53;8.23;;;7.18;;
40997;SDS011;26740;45.944;12.480;2023-06-22T11:35:19;14.77;;;9.98;;
40997;SDS011;26740;45.944;12.480;2023-06-22T11:37:44;12.18;;;9.80;;
40997;SDS011;26740;45.944;12.480;2023-06-22T11:40:10;10.57;;;9.63;;
40997;SDS011;26740;45.944;12.480;2023-06-22T11:42:35;10.27;;;9.35;;
40997;SDS011;26740;45.944;12.480;2023-06-22T11:45:01;14.35;;;8.90;;
40997;SDS011;26740;45.944;12.480;2023-06-22T11:47:26;12.18;;;8.15;;
40997;SDS011;26740;45.944;12.480;2023-06-22T11:49:52;11.63;;;8.70;;
40997;SDS011;26740;45.944;12.480;2023-06-22T11:52:18;9.95;;;8.60;;
40997;SDS011;26740;45.944;12.480;2023-06-22T11:54:44;10.70;;;9.60;;
40997;SDS011;26740;45.944;12.480;2023-06-22T11:57:11;17.15;;;8.80;;
40997;SDS011;26740;45.944;12.480;2023-06-22T11:59:36;12.73;;;9.18;;
40997;SDS011;26740;45.944;12.480;2023-06-22T12:02:01;11.13;;;9.45;;
40997;SDS011;26740;45.944;12.480;2023-06-22T12:04:27;10.40;;;9.40;;
40997;SDS011;26740;45.944;12.480;2023-06-22T12:06:52;10.85;;;9.90;;
40997;SDS011;26740;45.944;12.480;2023-06-22T12:09:18;12.02;;;9.52;;
40997;SDS011;26740;45.944;12.480;2023-06-22T12:11:43;14.38;;;10.15;;
40997;SDS011;26740;45.944;12.480;2023-06-22T12:14:08;21.27;;;9.40;;
40997;SDS011;26740;45.944;12.480;2023-06-22T12:16:34;11.45;;;9.35;;
40997;SDS011;26740;45.944;12.480;2023-06-22T12:18:59;12.93;;;8.57;;
40997;SDS011;26740;45.944;12.480;2023-06-22T12:21:24;9.95;;;8.95;;
40997;SDS011;26740;45.944;12.480;2023-06-22T12:23:50;10.50;;;7.70;;
40997;SDS011;26740;45.944;12.480;2023-06-22T12:26:15;11.38;;;8.68;;
40997;SDS011;26740;45.944;12.480;2023-06-22T12:28:41;8.57;;;7.63;;
40997;SDS011;26740;45.944;12.480;2023-06-22T12:31:06;11.05;;;7.32;;
40997;SDS011;26740;45.944;12.480;2023-06-22T12:33:32;12.25;;;7.80;;
40997;SDS011;26740;45.944;12.480;2023-06-22T12:35:57;13.18;;;8.82;;
40997;SDS011;26740;45.944;12.480;2023-06-22T12:38:23;14.85;;;8.82;;
40997;SDS011;26740;45.944;12.480;2023-06-22T12:40:50;9.13;;;7.68;;
40997;SDS011;26740;45.944;12.480;2023-06-22T12:43:16;11.63;;;8.85;;
40997;SDS011;26740;45.944;12.480;2023-06-22T12:45:41;16.02;;;9.10;;
40997;SDS011;26740;45.944;12.480;2023-06-22T12:48:06;16.83;;;9.15;;
40997;SDS011;26740;45.944;12.480;2023-06-22T12:50:33;12.05;;;9.38;;
40997;SDS011;26740;45.944;12.480;2023-06-22T12:52:58;14.68;;;8.77;;
40997;SDS011;26740;45.944;12.480;2023-06-22T12:55:25;15.07;;;8.32;;
40997;SDS011;26740;45.944;12.480;2023-06-22T12:57:50;8.82;;;7.28;;
40997;SDS011;26740;45.944;12.480;2023-06-22T13:00:16;11.10;;;7.60;;
40997;SDS011;26740;45.944;12.480;2023-06-22T13:02:41;10.85;;;8.23;;
40997;SDS011;26740;45.944;12.480;2023-06-22T13:05:07;10.07;;;6.35;;
40997;SDS011;26740;45.944;12.480;2023-06-22T13:07:33;15.13;;;6.93;;
40997;SDS011;26740;45.944;12.480;2023-06-22T13:09:59;9.18;;;6.75;;
40997;SDS011;26740;45.944;12.480;2023-06-22T13:12:24;7.30;;;6.57;;
40997;SDS011;26740;45.944;12.480;2023-06-22T13:14:49;9.27;;;6.90;;
40997;SDS011;26740;45.944;12.480;2023-06-22T13:17:15;14.25;;;6.75;;
40997;SDS011;26740;45.944;12.480;2023-06-22T13:19:40;8.57;;;6.45;;
40997;SDS011;26740;45.944;12.480;2023-06-22T13:24:50;10.23;;;6.35;;
40997;SDS011;26740;45.944;12.480;2023-06-22T13:27:15;8.23;;;6.45;;
40997;SDS011;26740;45.944;12.480;2023-06-22T13:29:41;14.30;;;6.15;;
40997;SDS011;26740;45.944;12.480;2023-06-22T13:32:06;7.78;;;7.07;;
40997;SDS011;26740;45.944;12.480;2023-06-22T13:34:31;8.90;;;7.40;;
40997;SDS011;26740;45.944;12.480;2023-06-22T13:36:57;9.85;;;7.93;;
40997;SDS011;26740;45.944;12.480;2023-06-22T13:39:22;11.55;;;7.25;;
40997;SDS011;26740;45.944;12.480;2023-06-22T13:41:47;10.18;;;7.90;;
40997;SDS011;26740;45.944;12.480;2023-06-22T13:44:13;8.63;;;6.55;;
40997;SDS011;26740;45.944;12.480;2023-06-22T13:46:38;8.50;;;6.93;;
40997;SDS011;26740;45.944;12.480;2023-06-22T13:49:04;15.30;;;8.07;;
40997;SDS011;26740;45.944;12.480;2023-06-22T13:51:29;9.45;;;7.43;;
40997;SDS011;26740;45.944;12.480;2023-06-22T13:53:54;11.30;;;7.30;;
40997;SDS011;26740;45.944;12.480;2023-06-22T13:56:20;13.27;;;6.55;;
40997;SDS011;26740;45.944;12.480;2023-06-22T13:58:45;10.63;;;7.40;;
40997;SDS011;26740;45.944;12.480;2023-06-22T14:01:10;10.90;;;6.93;;
40997;SDS011;26740;45.944;12.480;2023-06-22T14:03:36;12.40;;;6.82;;
40997;SDS011;26740;45.944;12.480;2023-06-22T14:06:01;9.02;;;7.00;;
40997;SDS011;26740;45.944;12.480;2023-06-22T14:08:27;9.90;;;5.88;;
40997;SDS011;26740;45.944;12.480;2023-06-22T14:10:52;13.38;;;6.70;;
40997;SDS011;26740;45.944;12.480;2023-06-22T14:13:18;12.77;;;7.22;;
40997;SDS011;26740;45.944;12.480;2023-06-22T14:15:44;7.75;;;6.45;;
40997;SDS011;26740;45.944;12.480;2023-06-22T14:18:09;6.63;;;5.40;;
40997;SDS011;26740;45.944;12.480;2023-06-22T14:20:34;7.85;;;5.57;;